San Francisco, California
Traffic Map
Current Weather Conditions
San Francisco, California
Overcast
Overcast
13°
Feels Like: 13°
Wind Chill: 13° Ceiling: 1800
Heat Index: 13° Visibility: 10mi
Dew Point: Wind: 0mph
Humidity: 72% Direction: ° ()
Pressure: 30.12in Gusts: 0mph
Raw Report DataKSFO 051756Z 00000KT 10SM FEW010 OVC018 13/08 A3012 RMK AO2 SLP198 T01280078 10128 20106 51008 $
Traffic Incident Summary
Active as of:
Severity:
Category:
InformationThere was an issue retrieving the traffic information for this location. Please try a different location or try again shortly.
Advertisements
Track Severe Weather on mobile